createdAt,value
2023-05-10T04:03:43.172Z,100781.50
2023-05-10T04:06:12.749Z,100783.50
2023-05-10T04:08:40.526Z,100782.47
2023-05-10T04:11:09.926Z,100786.69
2023-05-10T04:13:38.142Z,100782.97
2023-05-10T04:16:06.371Z,100782.25
2023-05-10T04:18:34.431Z,100786.00
2023-05-10T04:21:01.874Z,100787.63
2023-05-10T04:23:29.676Z,100784.56
2023-05-10T04:26:01.986Z,100784.91
2023-05-10T04:28:29.822Z,100787.41
2023-05-10T04:31:08.297Z,100786.41
2023-05-10T04:33:37.344Z,100793.03
2023-05-10T04:36:05.033Z,100797.75
2023-05-10T04:38:32.730Z,100798.56
2023-05-10T04:41:10.454Z,100797.69
2023-05-10T04:43:38.845Z,100808.03
2023-05-10T04:46:08.454Z,100797.09
2023-05-10T04:48:36.050Z,100806.75
2023-05-10T04:51:05.024Z,100805.22
2023-05-10T04:53:32.914Z,100806.25
2023-05-10T04:56:00.386Z,100812.31
2023-05-10T04:58:27.719Z,100806.53
2023-05-10T05:00:55.076Z,100813.50
2023-05-10T05:03:23.356Z,100810.97
2023-05-10T05:05:50.696Z,100808.06
2023-05-10T05:08:18.433Z,100815.41
2023-05-10T05:10:45.859Z,100816.66
2023-05-10T05:13:13.833Z,100816.78
2023-05-10T05:15:41.889Z,100823.19
2023-05-10T05:18:09.377Z,100810.25
2023-05-10T05:20:37.227Z,100822.88
2023-05-10T05:23:04.466Z,100822.97
2023-05-10T05:25:33.534Z,100821.59
2023-05-10T05:28:00.875Z,100830.03
2023-05-10T05:30:28.513Z,100831.25
2023-05-10T05:32:56.619Z,100833.81
2023-05-10T05:35:24.646Z,100838.00
2023-05-10T05:37:52.059Z,100831.63
2023-05-10T05:40:19.609Z,100841.97
2023-05-10T05:42:47.203Z,100843.47
2023-05-10T05:45:15.166Z,100843.84
2023-05-10T05:47:42.924Z,100847.34
2023-05-10T05:50:11.423Z,100849.47
2023-05-10T05:52:39.149Z,100849.09
2023-05-10T05:55:07.005Z,100851.16
2023-05-10T05:57:34.812Z,100857.47
2023-05-10T06:00:04.038Z,100855.78
2023-05-10T06:02:40.217Z,100862.75
2023-05-10T06:05:08.795Z,100867.22
2023-05-10T06:07:36.272Z,100873.75
2023-05-10T06:10:04.938Z,100879.47
2023-05-10T06:12:32.377Z,100880.50
2023-05-10T06:15:00.273Z,100877.28
2023-05-10T06:17:28.528Z,100886.41
2023-05-10T06:19:57.230Z,100881.63
2023-05-10T06:22:25.137Z,100883.06
2023-05-10T06:24:52.886Z,100886.72
2023-05-10T06:27:20.213Z,100890.66
2023-05-10T06:29:48.257Z,100899.06
2023-05-10T06:32:16.583Z,100897.56
2023-05-10T06:34:44.674Z,100903.22
2023-05-10T06:37:12.114Z,100911.97
2023-05-10T06:39:39.768Z,100907.38
2023-05-10T06:42:07.784Z,100914.91
2023-05-10T06:44:35.257Z,100911.41
2023-05-10T06:47:02.661Z,100923.50
2023-05-10T06:49:30.159Z,100922.53
2023-05-10T06:51:57.507Z,100927.56
2023-05-10T06:54:25.410Z,100922.16
2023-05-10T06:56:53.072Z,100922.72
2023-05-10T06:59:22.525Z,100927.84
2023-05-10T07:01:50.276Z,100923.63
2023-05-10T07:04:18.782Z,100921.22
2023-05-10T07:06:50.681Z,100919.63
2023-05-10T07:09:17.903Z,100922.72
2023-05-10T07:11:45.603Z,100926.69
2023-05-10T07:14:12.946Z,100935.69
2023-05-10T07:16:40.680Z,100931.28
2023-05-10T07:19:08.311Z,100926.38
2023-05-10T07:21:36.191Z,100935.88
2023-05-10T07:24:07.210Z,100920.78
2023-05-10T07:26:34.604Z,100926.47
2023-05-10T07:29:02.265Z,100923.72
2023-05-10T07:31:29.742Z,100926.19
2023-05-10T07:33:57.759Z,100926.47
2023-05-10T07:36:25.305Z,100923.31
2023-05-10T07:38:52.626Z,100918.31
2023-05-10T07:41:22.197Z,100920.06
2023-05-10T07:43:49.667Z,100924.03
2023-05-10T07:46:17.396Z,100928.19
2023-05-10T07:48:45.376Z,100922.47
2023-05-10T07:51:13.041Z,100933.31
2023-05-10T07:53:40.784Z,100932.81
2023-05-10T07:56:23.866Z,100932.81
2023-05-10T07:58:53.042Z,100939.56
2023-05-10T08:01:21.293Z,100936.53
2023-05-10T08:03:49.758Z,100942.28
2023-05-10T08:06:18.786Z,100937.91
2023-05-10T08:08:54.480Z,100936.59
2023-05-10T08:11:23.206Z,100930.03
2023-05-10T08:13:52.186Z,100932.97
2023-05-10T08:16:20.388Z,100934.16
2023-05-10T08:18:48.833Z,100936.16
2023-05-10T08:21:16.554Z,100923.13
2023-05-10T08:23:45.109Z,100935.72
2023-05-10T08:26:13.098Z,100936.16
2023-05-10T08:28:40.391Z,100934.81
2023-05-10T08:31:08.591Z,100924.47
2023-05-10T08:33:35.935Z,100928.22
2023-05-10T08:36:03.378Z,100927.19
2023-05-10T08:38:30.715Z,100925.00
2023-05-10T08:41:00.071Z,100926.09
2023-05-10T08:43:30.178Z,100924.84
2023-05-10T08:46:02.216Z,100918.81
2023-05-10T08:48:32.074Z,100918.91
2023-05-10T08:51:01.917Z,100899.84
2023-05-10T08:53:32.053Z,100889.16
2023-05-10T08:55:59.748Z,100878.41
2023-05-10T08:58:27.537Z,100871.97
2023-05-10T09:00:55.636Z,100864.34
2023-05-10T09:03:23.518Z,100865.44
2023-05-10T09:05:51.625Z,100857.53
2023-05-10T09:08:19.610Z,100850.03
2023-05-10T09:10:49.247Z,100846.09
2023-05-10T09:13:16.659Z,100845.44
2023-05-10T09:15:45.354Z,100846.03
2023-05-10T09:18:13.742Z,100853.16
2023-05-10T09:20:42.117Z,100879.06
2023-05-10T09:23:10.111Z,100899.00
2023-05-10T09:25:39.674Z,100902.94
2023-05-10T09:28:09.031Z,100903.69
2023-05-10T09:30:36.793Z,100903.72
2023-05-10T09:33:05.448Z,100900.78
2023-05-10T09:35:34.514Z,100875.22
2023-05-10T09:38:05.317Z,100874.03
2023-05-10T09:40:32.965Z,100876.16
2023-05-10T09:43:09.709Z,100885.53
2023-05-10T09:45:38.984Z,100895.03
2023-05-10T09:48:07.595Z,100906.66
2023-05-10T09:50:35.520Z,100918.91
2023-05-10T09:53:04.495Z,100921.94
2023-05-10T09:55:45.801Z,100932.91
2023-05-10T09:58:15.516Z,100932.03
2023-05-10T10:00:45.565Z,100937.09
2023-05-10T10:03:21.379Z,100932.44
2023-05-10T10:05:50.066Z,100924.56
2023-05-10T10:08:18.981Z,100912.81
2023-05-10T10:10:47.682Z,100914.72
2023-05-10T10:13:16.375Z,100916.31
2023-05-10T10:15:45.464Z,100923.56
2023-05-10T10:18:16.676Z,100925.72
2023-05-10T10:20:44.234Z,100917.84
2023-05-10T10:23:11.578Z,100919.44
2023-05-10T10:25:39.956Z,100936.03
2023-05-10T10:28:15.488Z,100934.75
2023-05-10T10:30:47.295Z,100938.00
2023-05-10T10:33:32.861Z,100945.78
2023-05-10T10:36:03.255Z,100942.19
2023-05-10T10:38:39.561Z,100928.44
2023-05-10T10:41:12.999Z,100932.75
2023-05-10T10:43:40.346Z,100924.38
2023-05-10T10:46:18.829Z,100927.13
2023-05-10T10:49:08.835Z,100918.38
2023-05-10T10:51:40.469Z,100918.25
2023-05-10T10:54:11.453Z,100925.25
2023-05-10T10:56:39.048Z,100915.97
2023-05-10T10:59:06.910Z,100917.81
2023-05-10T11:01:36.232Z,100926.59
2023-05-10T11:04:03.664Z,100922.78
2023-05-10T11:06:37.023Z,100925.69
2023-05-10T11:09:14.078Z,100925.38
2023-05-10T11:11:56.181Z,100918.53
2023-05-10T11:14:24.000Z,100913.72
2023-05-10T11:16:52.057Z,100911.97
2023-05-10T11:19:20.592Z,100907.22
2023-05-10T11:21:50.916Z,100912.47
2023-05-10T11:24:20.788Z,100905.63
2023-05-10T11:26:55.029Z,100907.78
2023-05-10T11:29:23.950Z,100902.94
2023-05-10T11:31:52.204Z,100903.69
2023-05-10T11:34:36.085Z,100904.03
2023-05-10T11:37:03.909Z,100904.13
2023-05-10T11:39:32.699Z,100903.38
2023-05-10T11:42:01.040Z,100902.69
2023-05-10T11:44:32.656Z,100904.47
2023-05-10T11:47:04.191Z,100906.63
2023-05-10T11:49:31.618Z,100903.16
2023-05-10T11:52:08.992Z,100905.72
2023-05-10T11:54:36.977Z,100913.59
2023-05-10T11:57:05.209Z,100907.00
2023-05-10T11:59:32.710Z,100906.66
2023-05-10T12:02:01.218Z,100912.59
2023-05-10T12:04:30.559Z,100910.47
2023-05-10T12:06:58.645Z,100907.72
2023-05-10T12:09:39.538Z,100905.47
2023-05-10T12:12:10.814Z,100916.28
2023-05-10T12:14:38.254Z,100917.72
2023-05-10T12:17:06.356Z,100901.75
2023-05-10T12:19:40.410Z,100908.00
2023-05-10T12:22:08.155Z,100912.59
2023-05-10T12:24:37.467Z,100912.69
2023-05-10T12:27:10.253Z,100919.22
2023-05-10T12:29:38.148Z,100920.53
2023-05-10T12:32:05.652Z,100921.72
2023-05-10T12:34:35.218Z,100916.19
2023-05-10T12:37:04.467Z,100920.91
2023-05-10T12:39:43.437Z,100914.72
2023-05-10T12:42:12.080Z,100907.78
2023-05-10T12:44:40.708Z,100915.59
2023-05-10T12:47:08.341Z,100912.53
2023-05-10T12:49:36.368Z,100917.63
2023-05-10T12:52:04.096Z,100919.50
2023-05-10T12:54:31.462Z,100928.81
2023-05-10T12:56:58.733Z,100923.72
2023-05-10T12:59:26.052Z,100926.25
2023-05-10T13:01:53.761Z,100929.09
2023-05-10T13:04:21.496Z,100920.31
2023-05-10T13:06:49.153Z,100918.25
2023-05-10T13:09:16.521Z,100913.94
2023-05-10T13:11:44.084Z,100916.44
2023-05-10T13:14:12.215Z,100917.50
2023-05-10T13:16:39.685Z,100916.78
2023-05-10T13:19:07.819Z,100919.16
2023-05-10T13:21:35.733Z,100911.59
2023-05-10T13:24:03.073Z,100914.50
2023-05-10T13:26:31.051Z,100909.91
2023-05-10T13:28:58.350Z,100912.88
2023-05-10T13:31:26.241Z,100921.66
2023-05-10T13:33:53.545Z,100920.72
2023-05-10T13:36:21.085Z,100917.41
2023-05-10T13:38:48.820Z,100913.94
2023-05-10T13:41:16.502Z,100910.41
2023-05-10T13:43:43.887Z,100913.97
2023-05-10T13:46:11.576Z,100895.88
2023-05-10T13:48:39.458Z,100894.25
2023-05-10T13:51:06.871Z,100898.34
2023-05-10T13:53:34.947Z,100895.47
2023-05-10T13:56:03.746Z,100902.34
2023-05-10T13:58:31.230Z,100903.94
2023-05-10T14:00:58.849Z,100895.94
2023-05-10T14:03:26.634Z,100886.53
2023-05-10T14:05:53.973Z,100885.41
2023-05-10T14:08:21.761Z,100883.56
2023-05-10T14:10:49.914Z,100876.44
2023-05-10T14:13:17.819Z,100881.16
2023-05-10T14:15:45.253Z,100876.47
2023-05-10T14:18:12.608Z,100870.81
2023-05-10T14:20:40.884Z,100865.34
2023-05-10T14:23:10.391Z,100865.75
2023-05-10T14:25:40.966Z,100865.81
2023-05-10T14:28:08.594Z,100861.50
2023-05-10T14:30:36.252Z,100857.88
2023-05-10T14:33:03.810Z,100850.50
2023-05-10T14:35:32.117Z,100844.44
2023-05-10T14:37:59.982Z,100842.81
2023-05-10T14:40:27.693Z,100842.28
2023-05-10T14:42:55.442Z,100842.88
2023-05-10T14:45:24.014Z,100842.47
2023-05-10T14:47:52.375Z,100834.06
2023-05-10T14:50:35.264Z,100842.66
2023-05-10T14:53:04.298Z,100836.03
2023-05-10T14:55:32.066Z,100841.81
2023-05-10T14:57:59.847Z,100839.13
2023-05-10T15:00:30.092Z,100835.66
2023-05-10T15:02:58.799Z,100822.31
2023-05-10T15:05:27.802Z,100821.19
2023-05-10T15:07:56.047Z,100820.63
2023-05-10T15:10:23.989Z,100820.50
2023-05-10T15:12:51.424Z,100823.25
2023-05-10T15:15:19.058Z,100821.31
2023-05-10T15:18:11.558Z,100821.69
2023-05-10T15:20:39.657Z,100819.38
2023-05-10T15:23:08.203Z,100815.13
2023-05-10T15:25:38.028Z,100815.88
2023-05-10T15:28:06.535Z,100824.16
2023-05-10T15:30:34.020Z,100824.66
2023-05-10T15:33:01.863Z,100821.31
2023-05-10T15:35:29.265Z,100816.50
2023-05-10T15:37:56.636Z,100827.53
2023-05-10T15:40:23.974Z,100812.41
2023-05-10T15:42:51.326Z,100811.81
2023-05-10T15:45:19.539Z,100815.38
2023-05-10T15:47:47.280Z,100823.94
2023-05-10T15:50:16.891Z,100822.38
2023-05-10T15:52:44.535Z,100826.88
2023-05-10T15:55:15.600Z,100829.16
2023-05-10T15:57:44.352Z,100822.25
2023-05-10T16:00:13.560Z,100822.88
2023-05-10T16:02:41.923Z,100815.72
2023-05-10T16:05:11.056Z,100823.38
2023-05-10T16:07:40.156Z,100812.16
2023-05-10T16:10:10.034Z,100800.38
2023-05-10T16:12:38.838Z,100808.13
2023-05-10T16:15:07.470Z,100803.16
2023-05-10T16:17:35.432Z,100807.88
2023-05-10T16:20:03.708Z,100819.38
2023-05-10T16:22:31.188Z,100813.50
2023-05-10T16:24:59.278Z,100813.72
2023-05-10T16:27:30.151Z,100808.97
2023-05-10T16:29:57.614Z,100803.25
2023-05-10T16:32:25.464Z,100811.84
2023-05-10T16:34:53.400Z,100809.34
2023-05-10T16:37:20.868Z,100807.59
2023-05-10T16:39:48.239Z,100813.44
2023-05-10T16:42:15.613Z,100808.53
2023-05-10T16:44:43.052Z,100805.53
2023-05-10T16:47:10.889Z,100811.13
2023-05-10T16:49:38.190Z,100808.50
2023-05-10T16:52:05.556Z,100809.63
2023-05-10T16:54:32.873Z,100809.38
2023-05-10T16:57:01.240Z,100806.56
2023-05-10T16:59:29.640Z,100808.19
2023-05-10T17:01:58.561Z,100803.09
2023-05-10T17:04:26.058Z,100804.38
2023-05-10T17:06:53.742Z,100811.50
2023-05-10T17:09:21.565Z,100801.91
2023-05-10T17:11:48.829Z,100809.09
2023-05-10T17:14:16.230Z,100803.16
2023-05-10T17:16:43.626Z,100798.66
2023-05-10T17:19:11.273Z,100799.53
2023-05-10T17:21:38.648Z,100794.16
2023-05-10T17:24:06.947Z,100794.31
2023-05-10T17:26:34.582Z,100794.66
2023-05-10T17:29:05.292Z,100792.25
2023-05-10T17:31:33.206Z,100792.34
2023-05-10T17:34:01.380Z,100802.28
2023-05-10T17:36:29.629Z,100802.06
2023-05-10T17:38:57.045Z,100804.13
2023-05-10T17:41:24.835Z,100809.84
2023-05-10T17:43:53.193Z,100800.13
2023-05-10T17:46:21.028Z,100805.00
2023-05-10T17:48:48.493Z,100797.97
2023-05-10T17:51:16.635Z,100805.72
2023-05-10T17:53:44.585Z,100803.66
2023-05-10T17:56:12.002Z,100810.00
2023-05-10T17:58:39.731Z,100807.59
2023-05-10T18:01:07.263Z,100808.31
2023-05-10T18:03:35.960Z,100810.56
2023-05-10T18:06:04.376Z,100816.13
2023-05-10T18:08:33.036Z,100817.59
2023-05-10T18:11:01.941Z,100822.19
2023-05-10T18:13:29.438Z,100827.22
2023-05-10T18:15:57.353Z,100831.59
2023-05-10T18:18:25.535Z,100829.19
2023-05-10T18:20:56.628Z,100837.63
2023-05-10T18:23:24.753Z,100829.19
2023-05-10T18:25:53.035Z,100844.97
2023-05-10T18:28:20.964Z,100835.50
2023-05-10T18:30:48.960Z,100842.03
2023-05-10T18:33:16.967Z,100837.25
2023-05-10T18:35:44.945Z,100841.09
2023-05-10T18:38:13.589Z,100850.00
2023-05-10T18:40:41.505Z,100842.75
2023-05-10T18:43:09.035Z,100848.16
2023-05-10T18:45:36.498Z,100851.91
2023-05-10T18:48:04.823Z,100853.81
2023-05-10T18:50:32.761Z,100852.00
2023-05-10T18:53:00.581Z,100852.00
2023-05-10T18:55:28.687Z,100859.88
2023-05-10T18:57:55.974Z,100853.22
2023-05-10T19:00:24.471Z,100858.03
2023-05-10T19:02:53.535Z,100856.69
2023-05-10T19:05:21.042Z,100860.78
2023-05-10T19:07:48.286Z,100855.47
2023-05-10T19:10:15.774Z,100863.22
2023-05-10T19:12:43.462Z,100863.84
2023-05-10T19:15:11.748Z,100860.66
2023-05-10T19:17:40.485Z,100860.03
2023-05-10T19:20:09.170Z,100855.69
2023-05-10T19:22:54.354Z,100864.91
2023-05-10T19:25:29.517Z,100869.50
2023-05-10T19:27:57.847Z,100869.97
2023-05-10T19:30:26.198Z,100878.25
2023-05-10T19:32:55.368Z,100877.66
2023-05-10T19:35:23.498Z,100882.06
2023-05-10T19:37:51.211Z,100884.59
2023-05-10T19:40:19.716Z,100887.53
2023-05-10T19:42:47.545Z,100887.28
2023-05-10T19:45:16.411Z,100890.16
2023-05-10T19:47:44.246Z,100888.09
2023-05-10T19:50:12.457Z,100878.75
2023-05-10T19:52:40.264Z,100885.38
2023-05-10T19:55:08.842Z,100877.81
2023-05-10T19:57:38.299Z,100883.06
2023-05-10T20:00:08.203Z,100890.13
2023-05-10T20:02:39.420Z,100884.91
2023-05-10T20:05:07.760Z,100895.56
2023-05-10T20:07:36.041Z,100894.56
2023-05-10T20:10:05.010Z,100889.75
2023-05-10T20:12:32.366Z,100898.59
2023-05-10T20:15:00.215Z,100906.94
2023-05-10T20:17:28.559Z,100899.78
2023-05-10T20:19:56.271Z,100898.88
2023-05-10T20:22:23.902Z,100892.38
2023-05-10T20:24:53.239Z,100890.72
2023-05-10T20:27:23.002Z,100894.84
2023-05-10T20:29:50.826Z,100902.38
2023-05-10T20:32:18.573Z,100894.06
2023-05-10T20:34:45.927Z,100899.81
2023-05-10T20:37:13.369Z,100892.44
2023-05-10T20:39:41.212Z,100891.72
2023-05-10T20:42:08.627Z,100890.78
2023-05-10T20:44:36.586Z,100881.78
2023-05-10T20:47:04.178Z,100880.31
2023-05-10T20:49:31.771Z,100882.84
2023-05-10T20:51:59.185Z,100885.84
2023-05-10T20:54:27.190Z,100889.94
2023-05-10T20:56:54.898Z,100886.41
2023-05-10T20:59:23.435Z,100894.28
2023-05-10T21:01:51.194Z,100887.34
2023-05-10T21:04:18.499Z,100881.50
2023-05-10T21:06:46.283Z,100880.50
2023-05-10T21:09:13.697Z,100888.88
2023-05-10T21:11:41.237Z,100883.47
2023-05-10T21:14:09.648Z,100878.03
2023-05-10T21:16:37.188Z,100879.25
2023-05-10T21:19:04.692Z,100876.84
2023-05-10T21:21:32.576Z,100871.19
2023-05-10T21:24:00.725Z,100875.81
2023-05-10T21:26:28.641Z,100873.81
2023-05-10T21:28:56.651Z,100865.59
2023-05-10T21:31:24.556Z,100866.38
2023-05-10T21:33:51.932Z,100863.63
2023-05-10T21:36:19.330Z,100872.63
2023-05-10T21:38:47.408Z,100870.75
2023-05-10T21:41:14.763Z,100873.91
2023-05-10T21:43:42.043Z,100872.66
2023-05-10T21:46:09.519Z,100876.66
2023-05-10T21:48:37.063Z,100877.66
2023-05-10T21:51:05.355Z,100875.31
2023-05-10T21:53:32.797Z,100874.66
2023-05-10T21:56:00.534Z,100869.91
2023-05-10T21:58:28.101Z,100869.63
2023-05-10T22:00:56.139Z,100865.06
2023-05-10T22:03:23.868Z,100861.00
2023-05-10T22:05:51.352Z,100863.16
2023-05-10T22:08:18.726Z,100871.56
